createdAt,value
2022-11-05T00:01:15.924Z,10.90
2022-11-05T00:04:02.987Z,10.50
2022-11-05T00:06:49.950Z,10.40
2022-11-05T00:09:34.997Z,10.37
2022-11-05T00:12:31.584Z,11.95
2022-11-05T00:15:18.797Z,11.13
2022-11-05T00:17:45.891Z,11.70
2022-11-05T00:20:14.160Z,12.23
2022-11-05T00:23:01.093Z,12.57
2022-11-05T00:25:30.056Z,12.63
2022-11-05T00:28:02.288Z,13.53
2022-11-05T00:30:30.718Z,12.67
2022-11-05T00:33:02.653Z,14.80
2022-11-05T00:35:30.072Z,13.17
2022-11-05T00:37:57.061Z,14.13
2022-11-05T00:40:24.149Z,14.07
2022-11-05T00:43:11.261Z,15.67
2022-11-05T00:45:38.623Z,15.87
2022-11-05T00:48:25.984Z,16.37
2022-11-05T00:50:53.034Z,16.60
2022-11-05T00:53:20.177Z,17.17
2022-11-05T00:55:47.520Z,16.77
2022-11-05T00:58:17.297Z,16.33
2022-11-05T01:00:48.329Z,16.67
2022-11-05T01:03:16.650Z,16.87
2022-11-05T01:05:47.741Z,19.97
2022-11-05T01:08:16.396Z,19.27
2022-11-05T01:10:49.779Z,19.07
2022-11-05T01:13:19.742Z,17.63
2022-11-05T01:15:47.789Z,17.47
2022-11-05T01:18:14.913Z,18.27
2022-11-05T01:20:42.095Z,17.67
2022-11-05T01:23:13.455Z,18.53
2022-11-05T01:25:43.081Z,18.13
2022-11-05T01:28:10.507Z,18.20
2022-11-05T01:30:38.206Z,17.80
2022-11-05T01:33:05.639Z,17.33
2022-11-05T01:35:32.680Z,17.90
2022-11-05T01:37:59.729Z,17.17
2022-11-05T01:40:27.131Z,17.37
2022-11-05T01:42:54.243Z,18.00
2022-11-05T01:45:26.351Z,18.07
2022-11-05T01:48:15.927Z,17.77
2022-11-05T01:51:05.228Z,17.63
2022-11-05T01:53:56.322Z,17.30
2022-11-05T01:57:03.108Z,16.70
2022-11-05T01:59:36.854Z,14.87
2022-11-05T02:02:06.124Z,15.80
2022-11-05T02:04:54.099Z,16.20
2022-11-05T02:07:23.333Z,15.00
2022-11-05T02:10:14.621Z,15.07
2022-11-05T02:12:45.005Z,14.13
2022-11-05T02:15:14.611Z,12.87
2022-11-05T02:18:21.448Z,13.73
2022-11-05T02:21:28.386Z,13.63
2022-11-05T02:24:20.611Z,13.73
2022-11-05T02:27:17.354Z,12.83
2022-11-05T02:30:06.546Z,12.47
2022-11-05T02:33:13.424Z,11.60
2022-11-05T02:36:20.350Z,11.33
2022-11-05T02:44:29.519Z,10.13
2022-11-05T02:47:37.217Z,10.33
2022-11-05T02:50:34.213Z,9.80
2022-11-05T02:53:40.891Z,10.53
2022-11-05T02:58:37.046Z,8.83
2022-11-05T03:01:07.164Z,9.07
2022-11-05T03:04:00.593Z,9.77
2022-11-05T03:06:51.287Z,9.20
2022-11-05T03:09:58.016Z,8.73
2022-11-05T03:13:07.866Z,9.00
2022-11-05T03:16:02.188Z,8.10
2022-11-05T03:18:54.698Z,8.70
2022-11-05T03:21:31.669Z,8.40
2022-11-05T03:24:06.342Z,8.23
2022-11-05T03:26:43.646Z,8.10
2022-11-05T03:29:18.166Z,7.90
2022-11-05T03:31:50.589Z,8.43
2022-11-05T03:34:23.738Z,8.20
2022-11-05T03:36:54.770Z,8.70
2022-11-05T03:39:29.206Z,8.20
2022-11-05T03:41:57.867Z,8.07
2022-11-05T03:44:30.925Z,8.07
2022-11-05T03:47:04.475Z,9.13
2022-11-05T03:49:38.711Z,9.53
2022-11-05T03:52:13.297Z,8.80
2022-11-05T03:54:40.721Z,8.48
2022-11-05T03:57:10.883Z,7.47
2022-11-05T03:59:45.005Z,7.73
2022-11-05T04:02:16.074Z,7.70
2022-11-05T04:04:43.246Z,7.70
2022-11-05T04:07:31.873Z,7.33
2022-11-05T04:10:19.502Z,7.13
2022-11-05T04:13:06.486Z,6.83
2022-11-05T04:15:53.316Z,8.40
2022-11-05T04:18:20.232Z,7.77
2022-11-05T04:21:07.183Z,8.00
2022-11-05T04:23:54.096Z,9.17
2022-11-05T04:26:23.586Z,9.70
2022-11-05T04:29:11.360Z,9.87
2022-11-05T04:31:38.847Z,10.17
2022-11-05T04:34:06.119Z,10.77
2022-11-05T04:36:33.067Z,10.93
2022-11-05T04:39:00.098Z,11.70
2022-11-05T04:41:27.157Z,11.57
2022-11-05T04:43:54.174Z,12.47
2022-11-05T04:46:21.612Z,13.03
2022-11-05T04:48:48.633Z,13.07
2022-11-05T04:51:15.623Z,13.77
2022-11-05T04:53:43.152Z,13.27
2022-11-05T04:56:17.829Z,13.27
2022-11-05T04:58:45.144Z,15.38
2022-11-05T05:01:21.040Z,15.47
2022-11-05T05:03:50.259Z,15.90
2022-11-05T05:06:18.220Z,13.87
2022-11-05T05:08:49.003Z,16.07
2022-11-05T05:11:17.977Z,14.87
2022-11-05T05:13:45.088Z,14.47
2022-11-05T05:16:30.204Z,13.70
2022-11-05T05:18:57.186Z,14.00
2022-11-05T05:21:41.042Z,14.10
2022-11-05T05:24:11.924Z,14.70
2022-11-05T05:26:43.577Z,15.20
2022-11-05T05:29:12.956Z,13.63
2022-11-05T05:31:41.513Z,13.73
2022-11-05T05:34:11.146Z,12.77
2022-11-05T05:36:38.245Z,13.73
2022-11-05T05:39:06.864Z,13.37
2022-11-05T05:41:34.221Z,13.57
2022-11-05T05:44:01.203Z,13.93
2022-11-05T05:46:28.183Z,15.30
2022-11-05T05:48:55.246Z,14.90
2022-11-05T05:51:22.257Z,14.87
2022-11-05T05:53:49.408Z,14.90
2022-11-05T05:56:19.380Z,14.93
2022-11-05T05:58:46.886Z,16.27
2022-11-05T06:01:19.334Z,14.27
2022-11-05T06:03:48.164Z,13.53
2022-11-05T06:06:16.120Z,13.07
2022-11-05T06:08:43.173Z,13.07
2022-11-05T06:11:10.239Z,11.87
2022-11-05T06:13:37.514Z,11.53
2022-11-05T06:16:07.054Z,11.97
2022-11-05T06:18:35.514Z,12.07
2022-11-05T06:21:23.183Z,11.20
2022-11-05T06:23:50.220Z,11.70
2022-11-05T06:26:18.781Z,11.37
2022-11-05T06:28:46.735Z,12.13
2022-11-05T06:31:14.926Z,11.50
2022-11-05T06:33:42.276Z,10.50
2022-11-05T06:36:14.611Z,11.47
2022-11-05T06:38:45.228Z,10.60
2022-11-05T06:41:12.292Z,10.17
2022-11-05T06:43:39.738Z,9.73
2022-11-05T06:46:08.566Z,10.80
2022-11-05T06:48:35.774Z,11.20
2022-11-05T06:51:03.902Z,9.77
2022-11-05T06:53:31.671Z,10.20
2022-11-05T06:56:02.773Z,10.47
2022-11-05T06:58:30.984Z,9.13
2022-11-05T07:01:09.929Z,9.30
2022-11-05T07:03:38.740Z,10.67
2022-11-05T07:06:08.000Z,11.03
2022-11-05T07:08:39.493Z,12.47
2022-11-05T07:11:07.304Z,12.60
2022-11-05T07:13:34.331Z,12.93
2022-11-05T07:16:01.373Z,13.07
2022-11-05T07:18:28.393Z,13.90
2022-11-05T07:20:55.343Z,13.87
2022-11-05T07:23:22.303Z,12.50
2022-11-05T07:25:49.953Z,14.27
2022-11-05T07:28:16.960Z,13.83
2022-11-05T07:30:43.968Z,12.53
2022-11-05T07:33:11.292Z,14.30
2022-11-05T07:35:39.002Z,14.33
2022-11-05T07:38:06.366Z,15.40
2022-11-05T07:40:33.561Z,15.37
2022-11-05T07:43:01.919Z,15.00
2022-11-05T07:45:30.663Z,14.73
2022-11-05T07:48:00.604Z,14.70
2022-11-05T07:50:30.308Z,14.77
2022-11-05T07:53:02.702Z,15.50
2022-11-05T07:55:30.330Z,14.00
2022-11-05T07:57:57.586Z,14.83
2022-11-05T08:00:25.914Z,14.97
2022-11-05T08:03:21.646Z,15.23
2022-11-05T08:05:48.943Z,16.05
2022-11-05T08:08:19.044Z,16.90
2022-11-05T08:10:46.758Z,18.70
2022-11-05T08:13:14.621Z,19.37
2022-11-05T08:15:42.937Z,21.27
2022-11-05T08:18:15.253Z,20.63
2022-11-05T08:20:43.294Z,22.83
2022-11-05T08:23:10.927Z,23.30
2022-11-05T08:25:39.894Z,22.90
2022-11-05T08:28:08.910Z,24.17
2022-11-05T08:30:35.916Z,24.87
2022-11-05T08:33:08.560Z,25.43
2022-11-05T08:35:37.729Z,25.73
2022-11-05T08:38:07.801Z,27.70
2022-11-05T08:40:36.648Z,28.10
2022-11-05T08:43:06.743Z,26.00
2022-11-05T08:45:34.952Z,26.03
2022-11-05T08:48:04.539Z,25.27
2022-11-05T08:50:32.387Z,26.00
2022-11-05T08:52:59.494Z,25.07
2022-11-05T08:55:27.281Z,24.17
2022-11-05T08:57:57.414Z,25.00
2022-11-05T09:00:25.221Z,24.43
2022-11-05T09:02:52.336Z,24.57
2022-11-05T09:05:19.475Z,22.23
2022-11-05T09:07:47.597Z,23.43
2022-11-05T09:10:14.659Z,23.23
2022-11-05T09:12:41.758Z,22.70
2022-11-05T09:15:09.728Z,24.67
2022-11-05T09:17:36.904Z,25.40
2022-11-05T09:20:07.496Z,21.67
2022-11-05T09:22:36.909Z,21.87
2022-11-05T09:25:08.488Z,19.70
2022-11-05T09:27:38.203Z,18.73
2022-11-05T09:30:05.823Z,18.67
2022-11-05T09:32:33.808Z,16.97
2022-11-05T09:35:01.777Z,16.63
2022-11-05T09:37:29.657Z,14.13
2022-11-05T09:39:56.727Z,15.00
2022-11-05T09:42:29.422Z,12.57
2022-11-05T09:45:05.533Z,11.77
2022-11-05T09:47:40.883Z,11.97
2022-11-05T09:52:36.050Z,8.70
2022-11-05T09:55:07.168Z,7.97
2022-11-05T09:57:45.695Z,6.80
2022-11-05T10:00:16.955Z,7.30
2022-11-05T10:02:56.486Z,5.77
2022-11-05T10:05:25.664Z,6.27
2022-11-05T10:08:04.507Z,5.13
2022-11-05T10:11:12.882Z,4.63
2022-11-05T10:13:48.783Z,4.70
2022-11-05T10:16:35.805Z,3.60
2022-11-05T10:19:25.253Z,4.13
2022-11-05T10:22:10.004Z,3.63
2022-11-05T10:24:38.063Z,3.57
2022-11-05T10:27:06.358Z,3.70
2022-11-05T10:29:34.710Z,3.53
2022-11-05T10:32:05.768Z,3.37
2022-11-05T10:34:36.612Z,3.77
2022-11-05T10:37:04.376Z,3.27
2022-11-05T10:39:34.099Z,2.77
2022-11-05T10:42:40.830Z,2.70
2022-11-05T10:45:40.624Z,2.60
2022-11-05T10:48:47.311Z,2.57
2022-11-05T10:53:50.065Z,2.53
2022-11-05T10:56:48.494Z,2.87
2022-11-05T10:59:31.629Z,3.80
2022-11-05T11:02:22.053Z,3.03
2022-11-05T11:04:58.832Z,2.77
2022-11-05T11:07:33.708Z,2.60
2022-11-05T11:10:00.737Z,3.08
2022-11-05T11:12:40.674Z,2.40
2022-11-05T11:15:32.721Z,2.10
2022-11-05T11:18:25.224Z,2.90
2022-11-05T11:20:52.312Z,2.73
2022-11-05T11:23:19.344Z,2.83
2022-11-05T11:26:01.769Z,2.30
2022-11-05T11:28:59.083Z,2.10
2022-11-05T11:31:30.163Z,2.90
2022-11-05T11:34:04.640Z,2.53
2022-11-05T11:36:36.525Z,2.85
2022-11-05T11:39:06.160Z,2.63
2022-11-05T11:41:41.945Z,2.60
2022-11-05T11:44:21.111Z,2.60
2022-11-05T11:46:53.273Z,2.50
2022-11-05T11:49:59.989Z,2.20
2022-11-05T11:52:46.846Z,2.63
2022-11-05T11:55:33.737Z,2.67
2022-11-05T11:58:07.218Z,2.80
2022-11-05T12:00:41.934Z,2.77
2022-11-05T12:03:50.066Z,2.63
2022-11-05T12:06:59.678Z,6.03
2022-11-05T12:10:07.372Z,3.07
2022-11-05T12:13:01.670Z,4.47
2022-11-05T12:15:53.983Z,4.30
2022-11-05T12:19:00.651Z,3.17
2022-11-05T12:25:00.129Z,3.13
2022-11-05T12:28:06.778Z,4.70
2022-11-05T12:33:32.547Z,4.27
2022-11-05T12:36:39.217Z,2.80
2022-11-05T12:42:27.062Z,2.77
2022-11-05T12:45:07.594Z,3.38
2022-11-05T12:48:14.259Z,4.23
2022-11-05T12:53:52.461Z,4.30
2022-11-05T12:59:18.588Z,4.63
2022-11-05T13:01:50.650Z,5.67
2022-11-05T13:04:53.933Z,5.80
2022-11-05T13:07:28.842Z,7.50
2022-11-05T13:10:05.467Z,4.57
2022-11-05T13:12:36.644Z,5.10
2022-11-05T13:15:10.834Z,5.57
2022-11-05T13:18:04.538Z,4.43
2022-11-05T13:20:37.675Z,4.50
2022-11-05T13:23:31.007Z,4.50
2022-11-05T13:26:07.241Z,12.77
2022-11-05T13:29:02.727Z,16.93
2022-11-05T13:31:35.578Z,4.80
2022-11-05T13:34:08.601Z,4.17
2022-11-05T13:37:08.235Z,3.97
2022-11-05T13:39:44.240Z,5.13
2022-11-05T13:42:50.975Z,5.07
2022-11-05T13:46:02.803Z,4.87
2022-11-05T13:49:12.158Z,4.90
2022-11-05T13:55:05.551Z,4.90
2022-11-05T14:03:14.679Z,4.07
2022-11-05T14:05:43.257Z,4.77
2022-11-05T14:08:18.550Z,5.07
2022-11-05T14:11:05.162Z,4.85
2022-11-05T14:13:54.424Z,4.47
2022-11-05T14:16:24.967Z,5.03
2022-11-05T14:19:14.761Z,5.73
2022-11-05T14:21:54.614Z,5.47
2022-11-05T14:24:43.492Z,6.50
2022-11-05T14:27:50.664Z,7.33
2022-11-05T14:30:57.350Z,5.80
2022-11-05T14:36:32.834Z,9.60
2022-11-05T14:39:13.760Z,8.13
2022-11-05T14:42:17.217Z,6.73
2022-11-05T14:45:26.516Z,5.10
2022-11-05T14:47:58.595Z,4.30
2022-11-05T14:50:34.777Z,5.53
2022-11-05T14:53:12.972Z,5.17
2022-11-05T14:55:43.057Z,5.20
2022-11-05T14:58:29.777Z,5.07
2022-11-05T15:01:01.901Z,5.70
2022-11-05T15:04:01.163Z,5.73
2022-11-05T15:06:36.747Z,7.77
2022-11-05T15:12:30.195Z,6.97
2022-11-05T15:17:33.324Z,8.03
2022-11-05T15:20:09.294Z,7.53
2022-11-05T15:22:40.596Z,9.17
2022-11-05T15:25:18.522Z,7.43
2022-11-05T15:28:08.008Z,8.77
2022-11-05T15:30:35.049Z,11.23
2022-11-05T15:33:22.151Z,15.17
2022-11-05T15:35:49.355Z,14.47
2022-11-05T15:38:29.458Z,17.60
2022-11-05T15:41:02.148Z,26.20
2022-11-05T15:43:29.573Z,45.07
2022-11-05T15:46:20.089Z,83.17
2022-11-05T15:48:49.980Z,67.17
2022-11-05T15:51:20.675Z,35.40
2022-11-05T15:54:34.630Z,21.43
2022-11-05T15:57:02.191Z,13.73
2022-11-05T15:59:30.674Z,17.87
2022-11-05T16:02:23.591Z,26.40
2022-11-05T16:04:51.356Z,15.87
2022-11-05T16:07:19.945Z,14.00
2022-11-05T16:09:57.964Z,14.47
2022-11-05T16:12:31.112Z,32.97
2022-11-05T16:15:22.989Z,22.57
2022-11-05T16:18:20.844Z,22.47
2022-11-05T16:21:00.819Z,42.33
2022-11-05T16:23:41.984Z,37.33
2022-11-05T16:29:41.100Z,230.67
2022-11-05T16:32:18.309Z,97.53
2022-11-05T16:34:49.898Z,122.97
2022-11-05T16:37:19.413Z,73.33
2022-11-05T16:39:46.434Z,195.30
2022-11-05T16:42:53.187Z,237.47
2022-11-05T16:45:24.282Z,72.27
2022-11-05T16:47:52.079Z,22.80
2022-11-05T16:50:42.137Z,19.53
2022-11-05T16:53:09.359Z,19.53
2022-11-05T16:55:56.168Z,22.43
2022-11-05T16:58:26.171Z,20.73
2022-11-05T17:01:00.988Z,17.27
2022-11-05T17:03:28.092Z,14.52
2022-11-05T17:05:55.211Z,10.80
2022-11-05T17:08:22.212Z,9.37
2022-11-05T17:10:49.376Z,9.97
2022-11-05T17:13:18.418Z,10.13
2022-11-05T17:15:49.602Z,10.50
2022-11-05T17:18:18.932Z,16.43
2022-11-05T17:20:52.100Z,17.00
2022-11-05T17:23:21.302Z,19.50
2022-11-05T17:25:54.448Z,18.20
2022-11-05T17:28:22.139Z,16.40
2022-11-05T17:30:53.282Z,21.33
2022-11-05T17:33:21.755Z,13.17
2022-11-05T17:35:49.249Z,8.27
2022-11-05T17:38:16.431Z,8.77
2022-11-05T17:40:43.577Z,10.90
2022-11-05T17:43:11.002Z,10.93
2022-11-05T17:45:43.936Z,10.67
2022-11-05T17:48:11.565Z,10.70
2022-11-05T17:50:42.417Z,11.90
2022-11-05T17:53:10.812Z,8.17
2022-11-05T17:55:40.137Z,7.97
2022-11-05T17:58:07.203Z,7.80
2022-11-05T18:00:35.032Z,6.90
2022-11-05T18:03:02.310Z,8.83
2022-11-05T18:05:31.092Z,8.33
2022-11-05T18:07:58.522Z,9.93
2022-11-05T18:10:25.679Z,13.13
2022-11-05T18:12:52.690Z,11.77
2022-11-05T18:15:19.893Z,12.63
2022-11-05T18:17:47.394Z,13.13
2022-11-05T18:20:19.260Z,13.83
2022-11-05T18:22:49.029Z,10.93
2022-11-05T18:25:16.288Z,9.67
2022-11-05T18:27:44.778Z,9.70
2022-11-05T18:30:15.502Z,10.60
2022-11-05T18:32:44.439Z,10.70
2022-11-05T18:35:15.814Z,11.73
2022-11-05T18:37:43.461Z,12.60
2022-11-05T18:40:11.304Z,10.87
2022-11-05T18:42:38.600Z,10.60
2022-11-05T18:45:07.379Z,11.30
2022-11-05T18:47:34.632Z,13.90
2022-11-05T18:50:01.973Z,13.70
2022-11-05T18:52:31.588Z,12.23
2022-11-05T18:54:59.499Z,12.07
2022-11-05T18:57:27.296Z,11.30
2022-11-05T18:59:54.469Z,12.37
2022-11-05T19:02:21.617Z,10.90
2022-11-05T19:05:07.069Z,8.80
2022-11-05T19:07:37.882Z,8.70
2022-11-05T19:10:05.462Z,10.20
2022-11-05T19:12:32.731Z,10.70
2022-11-05T19:15:02.874Z,9.60
2022-11-05T19:17:31.486Z,8.93
2022-11-05T19:19:58.497Z,9.13
2022-11-05T19:22:26.173Z,9.87
2022-11-05T19:24:53.479Z,13.57
2022-11-05T19:27:20.510Z,13.20
2022-11-05T19:29:47.881Z,20.27
2022-11-05T19:32:15.613Z,32.43
2022-11-05T19:34:46.462Z,30.53
2022-11-05T19:37:13.554Z,27.23
2022-11-05T19:39:42.616Z,21.50
2022-11-05T19:42:10.152Z,11.50
2022-11-05T19:44:37.227Z,10.43
2022-11-05T19:47:04.399Z,9.83
2022-11-05T19:49:31.386Z,9.90
2022-11-05T19:51:58.438Z,15.07
2022-11-05T19:54:25.404Z,18.87
2022-11-05T19:56:52.560Z,21.93
2022-11-05T19:59:19.512Z,24.90
2022-11-05T20:01:46.786Z,22.63
2022-11-05T20:04:14.036Z,22.63
2022-11-05T20:06:41.202Z,20.70
2022-11-05T20:09:27.437Z,18.70
2022-11-05T20:11:56.721Z,18.10
2022-11-05T20:14:25.315Z,14.03
2022-11-05T20:16:52.862Z,11.40
2022-11-05T20:19:21.809Z,10.40
2022-11-05T20:21:49.030Z,9.67
2022-11-05T20:24:23.775Z,10.47
2022-11-05T20:26:54.267Z,11.33
2022-11-05T20:29:21.808Z,12.00
2022-11-05T20:31:48.994Z,11.07
2022-11-05T20:34:16.004Z,14.33
2022-11-05T20:36:43.259Z,14.63
2022-11-05T20:39:12.613Z,13.60
2022-11-05T20:41:40.170Z,10.73
2022-11-05T20:44:10.002Z,11.37
2022-11-05T20:46:37.075Z,10.93
2022-11-05T20:49:04.113Z,9.80
2022-11-05T20:51:31.157Z,12.63
2022-11-05T20:54:00.365Z,22.33
2022-11-05T20:56:29.775Z,20.50
2022-11-05T20:58:58.564Z,19.77
2022-11-05T21:01:26.912Z,15.70
2022-11-05T21:03:54.235Z,13.23
2022-11-05T21:06:21.448Z,11.33
2022-11-05T21:08:50.162Z,12.77
2022-11-05T21:11:18.406Z,11.10
2022-11-05T21:13:45.872Z,11.13
2022-11-05T21:16:18.056Z,10.60
2022-11-05T21:18:46.175Z,10.03
2022-11-05T21:21:17.296Z,9.80
2022-11-05T21:23:44.517Z,9.63
2022-11-05T21:26:14.431Z,9.93
2022-11-05T21:28:42.259Z,12.10
2022-11-05T21:31:09.791Z,20.63
2022-11-05T21:33:37.688Z,23.20
2022-11-05T21:36:09.369Z,22.60
2022-11-05T21:38:37.319Z,22.37
2022-11-05T21:41:07.867Z,19.87
2022-11-05T21:43:35.999Z,23.20
2022-11-05T21:46:04.670Z,22.13
2022-11-05T21:48:32.379Z,18.33
2022-11-05T21:51:19.451Z,10.13
2022-11-05T21:54:07.343Z,10.53
2022-11-05T21:56:54.699Z,9.30
2022-11-05T21:59:43.869Z,10.03
2022-11-05T22:02:12.761Z,10.07
2022-11-05T22:04:55.470Z,9.07
2022-11-05T22:07:25.080Z,11.67
2022-11-05T22:09:52.619Z,13.23
2022-11-05T22:12:19.830Z,14.73
2022-11-05T22:14:47.038Z,13.90
2022-11-05T22:17:14.815Z,12.53
2022-11-05T22:19:42.633Z,13.30
2022-11-05T22:22:10.070Z,12.90
2022-11-05T22:24:40.068Z,14.63
2022-11-05T22:27:11.377Z,11.50
2022-11-05T22:29:38.545Z,13.17
2022-11-05T22:32:06.713Z,10.27
2022-11-05T22:34:36.784Z,11.10
2022-11-05T22:37:04.778Z,11.70
2022-11-05T22:39:32.168Z,16.10
2022-11-05T22:42:04.207Z,11.13
2022-11-05T22:44:38.220Z,11.43
2022-11-05T22:47:07.263Z,12.97
2022-11-05T22:49:35.260Z,11.10
2022-11-05T22:52:02.296Z,9.70
2022-11-05T22:54:31.028Z,8.60
2022-11-05T22:57:01.993Z,10.00
2022-11-05T22:59:29.069Z,8.57
2022-11-05T23:01:56.296Z,10.27
2022-11-05T23:04:23.336Z,9.43
2022-11-05T23:07:10.261Z,9.33
2022-11-05T23:09:58.432Z,10.83
2022-11-05T23:12:29.846Z,9.43
2022-11-05T23:14:58.864Z,9.00
2022-11-05T23:17:46.506Z,9.00
2022-11-05T23:20:38.921Z,9.83
2022-11-05T23:23:30.992Z,9.93
2022-11-05T23:25:59.212Z,10.50
2022-11-05T23:28:26.341Z,10.03
2022-11-05T23:31:13.222Z,10.37
2022-11-05T23:33:40.193Z,11.93
2022-11-05T23:36:32.070Z,12.10
2022-11-05T23:38:59.092Z,12.03
2022-11-05T23:41:45.929Z,13.07
2022-11-05T23:44:34.101Z,12.40
2022-11-05T23:47:20.958Z,12.60
2022-11-05T23:49:47.905Z,12.87
2022-11-05T23:52:14.950Z,14.50
2022-11-05T23:54:42.173Z,12.87
2022-11-05T23:57:09.131Z,12.07
2022-11-05T23:59:36.097Z,12.63
